This is the latest recevied weather packets stored in our database for station/object N7NKE. If no packets are shown the sender has not sent any weather packets the latest 10 day(s).
| Time | Temp. | Humidity | Pressure | Rain* | Wind** | Luminosity | Snow |
|---|---|---|---|---|---|---|---|
| 1778125804 | 13.89° C | 76% | 1020.9 hPa | 0 mm | - | 0 W/m² | - |
| 1778124305 | 14.44° C | 74% | 1020.6 hPa | 0 mm | - | 0 W/m² | - |
| 1778123705 | 15° C | 73% | 1020.5 hPa | 0 mm | - | 0 W/m² | - |
| 1778123104 | 15° C | 72% | 1020.4 hPa | 0 mm | - | 11 W/m² | - |
| 1778122805 | 15° C | 72% | 1020.3 hPa | 0 mm | - | 16 W/m² | - |
| 1778121304 | 16.11° C | 72% | 1020.1 hPa | 0 mm | - | 39 W/m² | - |
| 1778120705 | 16.67° C | 70% | 1020 hPa | 0 mm | - | 51 W/m² | - |
| 1778119205 | 17.22° C | 69% | 1019.9 hPa | 0 mm | - | 172 W/m² | - |
| 1778113205 | 19.44° C | 69% | 1019.9 hPa | 0 mm | - | 216 W/m² | - |
| 1778111704 | 18.89° C | 67% | 1019.9 hPa | 0 mm | - | 225 W/m² | - |
| 1778110205 | 19.44° C | 67% | 1019.8 hPa | 0 mm | - | 332 W/m² | - |
| 1778108704 | 20° C | 69% | 1019.9 hPa | 0 mm | - | 274 W/m² | - |
| 1778108104 | 20° C | 69% | 1019.9 hPa | 0 mm | - | 332 W/m² | - |
| 1778107804 | 20° C | 69% | 1019.9 hPa | 0 mm | - | 283 W/m² | - |
| 1778106304 | 20° C | 69% | 1020 hPa | 0 mm | - | 265 W/m² | - |
| 1778106004 | 20° C | 68% | 1020 hPa | 0 mm | - | 255 W/m² | - |
| 1778105104 | 20° C | 70% | 1020 hPa | 0 mm | - | 376 W/m² | - |
| 1778104504 | 20° C | 71% | 1019.9 hPa | 0 mm | - | 396 W/m² | - |
| 1778103605 | 19.44° C | 72% | 1020 hPa | 0 mm | - | 381 W/m² | - |
| 1778102105 | 20° C | 69% | 1020 hPa | 0 mm | - | 269 W/m² | - |
| 1778100904 | 19.44° C | 71% | 1020.2 hPa | 0 mm | - | 318 W/m² | - |
| 1778096404 | 18.33° C | 72% | 1020.5 hPa | 0 mm | - | 330 W/m² | - |
| 1778093105 | 18.33° C | 72% | 1020.5 hPa | 0 mm | - | 682 W/m² | - |
| 1778092504 | 17.78° C | 73% | 1020.6 hPa | 0 mm | - | 434 W/m² | - |
| 1778091004 | 17.78° C | 72% | 1020.5 hPa | 0 mm | - | 392 W/m² | - |
* Rain latest hour (hover to see other rain measurements)
** Current wind speed in m/s (hover to see current wind gust speed)